Time;durP1;ratioP1;P1;durP2;ratioP2;P2;SDS_P1;SDS_P2;PMS_P1;PMS_P2;Temp;Humidity;BMP_temperature;BMP_pressure;BME280_temperature;BME280_humidity;BME280_pressure;Samples;Min_cycle;Max_cycle;Signal;HPM_P1;HPM_P2
2022/07/25 00:00:00;;;;;;;6.63;2.95;;;16.70;99.90;;;16.95;100.00;99016.47;5041960;27;129945;-77
2022/07/25 00:02:29;;;;;;;5.45;2.90;;;16.70;99.90;;;17.06;100.00;99022.91;5042215;27;118935;-78
2022/07/25 00:04:58;;;;;;;5.05;3.03;;;16.70;99.90;;;17.13;100.00;99025.00;5044544;27;114824;-75
2022/07/25 00:07:27;;;;;;;4.43;2.88;;;16.70;99.90;;;17.12;100.00;99026.13;5042007;27;129870;-77
2022/07/25 00:09:55;;;;;;;4.88;3.22;;;16.70;99.90;;;17.12;100.00;99032.41;5044191;27;129228;-73
2022/07/25 00:12:24;;;;;;;5.03;2.80;;;16.70;99.90;;;17.18;100.00;99044.66;5042395;27;118496;-76
2022/07/25 00:14:54;;;;;;;5.05;2.95;;;16.70;99.90;;;17.19;100.00;99038.00;5042326;27;115243;-77
2022/07/25 00:17:23;;;;;;;5.18;3.35;;;16.70;99.90;;;17.20;100.00;99044.28;5041633;27;130876;-75
2022/07/25 00:19:51;;;;;;;5.70;3.22;;;16.70;99.90;;;17.19;100.00;99043.50;5043532;27;129818;-76
2022/07/25 00:22:20;;;;;;;5.93;3.10;;;16.70;99.90;;;17.20;100.00;99056.06;5042141;27;119046;-75
2022/07/25 00:24:48;;;;;;;5.03;3.13;;;16.70;99.90;;;17.18;100.00;99052.88;5042473;27;114918;-76
2022/07/25 00:27:16;;;;;;;5.25;3.30;;;16.60;99.90;;;17.18;100.00;99050.13;5041742;27;130118;-74
2022/07/25 00:29:45;;;;;;;7.50;3.40;;;16.60;99.90;;;17.14;100.00;99046.56;5041788;27;129450;-79
2022/07/25 00:32:15;;;;;;;8.07;3.67;;;16.60;99.90;;;17.17;100.00;99053.22;5041918;27;119450;-75
2022/07/25 00:34:44;;;;;;;7.18;3.58;;;16.60;99.90;;;16.97;100.00;99045.09;5042446;27;114925;-75
2022/07/25 00:37:13;;;;;;;5.07;3.22;;;16.60;99.90;;;16.87;100.00;99043.72;5041336;27;130169;-76
2022/07/25 00:39:41;;;;;;;7.25;3.13;;;16.60;99.90;;;16.82;100.00;99043.22;5041306;27;129459;-77
2022/07/25 00:42:09;;;;;;;6.35;3.60;;;16.60;99.90;;;16.91;100.00;99041.06;5041560;27;119319;-76
2022/07/25 00:44:38;;;;;;;6.30;3.50;;;16.70;99.90;;;16.93;100.00;99040.69;5043646;27;115650;-75
2022/07/25 00:47:07;;;;;;;7.18;4.18;;;16.70;99.90;;;16.86;100.00;99049.56;5041333;27;129688;-74
2022/07/25 00:49:37;;;;;;;5.05;3.35;;;16.70;99.90;;;16.83;100.00;99045.59;5041083;27;129200;-77
2022/07/25 00:52:06;;;;;;;5.18;3.55;;;16.70;99.90;;;16.86;100.00;99036.69;5041557;27;119304;-73
2022/07/25 00:54:35;;;;;;;6.82;3.35;;;16.80;99.90;;;16.83;100.00;99047.56;5040513;27;115435;-77
2022/07/25 00:57:04;;;;;;;5.93;3.72;;;16.70;99.90;;;16.95;100.00;99049.34;5041135;27;130525;-76
2022/07/25 00:59:33;;;;;;;5.35;3.67;;;16.80;99.90;;;16.89;100.00;99052.41;5043328;27;128492;-77
2022/07/25 01:02:01;;;;;;;5.57;3.80;;;16.70;99.90;;;16.86;100.00;99042.16;5041572;27;118824;-77
2022/07/25 01:04:30;;;;;;;5.00;3.80;;;16.80;99.90;;;16.91;100.00;99040.25;5041594;27;115706;-75
2022/07/25 01:07:00;;;;;;;7.57;3.88;;;16.80;99.90;;;16.92;100.00;99042.63;5040880;27;130249;-74
2022/07/25 01:09:29;;;;;;;8.50;3.95;;;16.80;99.90;;;16.86;100.00;99030.38;5043020;27;128405;-75
2022/07/25 01:11:58;;;;;;;4.95;3.72;;;16.70;99.90;;;16.92;100.00;99039.91;5042957;27;117733;-77
2022/07/25 01:14:27;;;;;;;5.35;3.70;;;16.70;99.90;;;16.89;100.00;99041.44;5041821;27;115228;-76
2022/07/25 01:16:55;;;;;;;7.82;4.10;;;16.70;99.90;;;16.85;100.00;99046.03;5040672;27;129727;-74
2022/07/25 01:19:24;;;;;;;4.70;3.35;;;16.70;99.90;;;16.81;100.00;99045.19;5040580;27;129797;-75
2022/07/25 01:21:55;;;;;;;6.60;4.25;;;16.70;99.90;;;16.83;100.00;99042.84;5041023;27;119318;-76
2022/07/25 01:24:23;;;;;;;6.65;4.25;;;16.80;99.90;;;16.96;100.00;99037.22;5043205;27;114923;-76
2022/07/25 01:26:52;;;;;;;6.05;3.75;;;16.80;99.90;;;16.96;100.00;99043.50;5039652;27;130558;-75
2022/07/25 01:29:20;;;;;;;6.85;3.63;;;16.70;99.90;;;16.95;100.00;99038.38;5040645;27;130433;-75
2022/07/25 01:31:49;;;;;;;5.50;3.75;;;16.80;99.90;;;16.83;100.00;99037.38;5040858;27;119602;-76
2022/07/25 01:34:17;;;;;;;5.35;3.40;;;16.70;99.90;;;16.80;100.00;99045.56;5041693;27;116414;-76
2022/07/25 01:36:46;;;;;;;4.88;3.53;;;16.70;99.90;;;16.69;100.00;99043.41;5040756;27;130312;-76
2022/07/25 01:39:16;;;;;;;6.65;3.63;;;16.70;99.90;;;16.72;100.00;99047.38;5040621;27;130008;-77
2022/07/25 01:41:44;;;;;;;5.55;3.40;;;16.60;99.90;;;16.72;100.00;99039.16;5039771;27;118753;-76
2022/07/25 01:44:13;;;;;;;6.45;3.42;;;16.60;99.90;;;16.63;100.00;99049.53;5041211;27;115232;-74
2022/07/25 01:46:42;;;;;;;5.82;3.30;;;16.50;99.90;;;16.65;100.00;99041.75;5040434;27;130361;-77
2022/07/25 01:49:11;;;;;;;5.43;3.80;;;16.50;99.90;;;16.68;100.00;99046.50;5040764;27;129775;-74
2022/07/25 01:51:39;;;;;;;5.18;3.10;;;16.50;99.90;;;16.67;100.00;99044.91;5041200;27;119380;-75
2022/07/25 01:54:08;;;;;;;8.10;3.92;;;16.50;99.90;;;16.62;100.00;99054.22;5042205;27;115505;-76
2022/07/25 01:56:43;;;;;;;4.82;3.78;;;16.40;99.90;;;16.63;100.00;99055.03;5040465;27;130336;-76
2022/07/25 01:59:12;;;;;;;6.97;3.72;;;16.30;99.90;;;16.62;100.00;99043.25;5040301;27;129204;-77
2022/07/25 02:01:41;;;;;;;6.70;3.55;;;16.30;99.90;;;16.51;100.00;99045.00;5043210;27;119016;-77
2022/07/25 02:04:09;;;;;;;8.90;3.83;;;16.30;99.90;;;16.49;100.00;99056.31;5044208;27;115026;-78
2022/07/25 02:06:40;;;;;;;6.30;3.80;;;16.20;99.90;;;16.34;100.00;99054.47;5043610;27;130422;-76
2022/07/25 02:09:09;;;;;;;6.00;3.42;;;16.20;99.90;;;16.38;100.00;99055.34;5046680;27;132030;-77
2022/07/25 02:11:38;;;;;;;6.50;3.88;;;16.30;99.90;;;16.49;100.00;99061.81;5043891;27;119051;-74
2022/07/25 02:14:07;;;;;;;5.47;4.03;;;16.30;99.90;;;16.55;100.00;99059.56;5046169;27;113888;-77
2022/07/25 02:16:36;;;;;;;4.97;3.63;;;16.30;99.90;;;16.51;100.00;99054.00;5043629;27;129896;-75
2022/07/25 02:19:04;;;;;;;5.20;3.25;;;16.40;99.90;;;16.54;100.00;99057.97;5043616;27;129460;-74
2022/07/25 02:21:33;;;;;;;6.50;3.53;;;16.30;99.90;;;16.54;100.00;99060.72;5043545;27;119594;-76
2022/07/25 02:24:01;;;;;;;6.18;3.60;;;16.30;99.90;;;16.64;100.00;99064.81;5042738;27;116249;-76
2022/07/25 02:26:30;;;;;;;5.38;3.50;;;16.30;99.90;;;16.68;100.00;99062.94;5043263;27;129870;-75
2022/07/25 02:29:00;;;;;;;5.82;3.40;;;16.30;99.90;;;16.74;100.00;99061.47;5043301;27;130104;-77
2022/07/25 02:31:29;;;;;;;5.38;3.58;;;16.30;99.90;;;16.76;100.00;99075.59;5043815;27;118817;-76
2022/07/25 02:33:57;;;;;;;5.18;3.78;;;16.20;99.90;;;16.76;100.00;99067.38;5043890;27;114975;-76
2022/07/25 02:36:26;;;;;;;6.22;2.95;;;16.20;99.90;;;16.71;100.00;99073.94;5043319;27;130740;-77
2022/07/25 02:38:54;;;;;;;5.75;3.65;;;16.20;99.90;;;16.65;100.00;99080.09;5043948;27;129685;-76
2022/07/25 02:41:23;;;;;;;5.35;3.20;;;16.10;99.90;;;16.65;100.00;99071.88;5043718;27;119149;-76
2022/07/25 02:43:52;;;;;;;5.22;3.53;;;16.10;99.90;;;16.68;100.00;99087.59;5045925;27;115125;-75
2022/07/25 02:46:22;;;;;;;4.45;3.25;;;16.10;99.90;;;16.69;100.00;99083.72;5043309;27;130004;-76
2022/07/25 02:48:51;;;;;;;5.00;2.92;;;16.10;99.90;;;16.67;100.00;99088.72;5045064;27;129463;-76
2022/07/25 02:51:19;;;;;;;4.50;2.72;;;16.10;99.90;;;16.76;100.00;99092.03;5044148;27;118802;-78
2022/07/25 02:53:48;;;;;;;4.40;3.25;;;16.10;99.90;;;16.76;100.00;99085.78;5045923;27;115150;-76
2022/07/25 02:56:17;;;;;;;8.18;4.05;;;16.10;99.90;;;16.80;100.00;99097.59;5044830;27;129662;-76
2022/07/25 02:58:45;;;;;;;8.88;3.30;;;16.10;99.90;;;16.77;100.00;99096.38;5044784;27;128788;-77
2022/07/25 03:01:14;;;;;;;7.22;2.72;;;16.10;99.90;;;16.78;100.00;99095.22;5042119;27;118627;-76
2022/07/25 03:03:44;;;;;;;5.53;2.97;;;16.10;99.90;;;16.66;100.00;99100.88;5045665;27;113809;-78
2022/07/25 03:06:12;;;;;;;7.53;2.75;;;16.10;99.90;;;16.49;100.00;99108.38;5042901;27;129762;-77
2022/07/25 03:08:41;;;;;;;5.05;2.67;;;16.10;99.90;;;16.53;100.00;99102.94;5044797;27;129544;-75
2022/07/25 03:11:09;;;;;;;6.78;3.10;;;16.10;99.90;;;16.42;100.00;99104.69;5042913;27;118849;-79
2022/07/25 03:13:38;;;;;;;5.57;3.17;;;16.00;99.90;;;16.41;100.00;99101.16;5043348;27;115478;-76
2022/07/25 03:16:08;;;;;;;5.25;2.88;;;16.00;99.90;;;16.62;100.00;99108.22;5042779;27;131000;-77
2022/07/25 03:18:37;;;;;;;4.22;2.80;;;16.20;99.90;;;16.78;100.00;99099.91;5042769;27;130629;-75
2022/07/25 03:21:07;;;;;;;5.00;3.05;;;16.30;99.90;;;16.73;100.00;99105.69;5043214;27;119185;-76
2022/07/25 03:23:36;;;;;;;5.88;2.72;;;16.30;99.90;;;16.98;100.00;99100.69;5042948;27;115112;-76
2022/07/25 03:26:05;;;;;;;3.88;2.17;;;16.50;99.90;;;17.65;100.00;99100.22;5042505;27;129946;-77
2022/07/25 03:28:33;;;;;;;3.88;2.13;;;16.90;99.90;;;18.11;100.00;99102.88;5042521;27;129539;-76
2022/07/25 03:31:02;;;;;;;5.63;2.45;;;17.30;99.90;;;18.22;100.00;99105.78;5042781;27;119319;-75
2022/07/25 03:33:31;;;;;;;5.18;2.53;;;17.20;99.90;;;18.15;100.00;99108.41;5043044;27;115079;-77
2022/07/25 03:36:00;;;;;;;5.07;2.42;;;17.00;99.90;;;18.07;100.00;99112.25;5042087;27;130069;-76
2022/07/25 03:38:32;;;;;;;4.35;2.72;;;16.80;99.90;;;17.89;100.00;99115.53;5042184;27;130097;-76
2022/07/25 03:41:00;;;;;;;5.18;2.50;;;16.70;99.90;;;17.99;100.00;99113.31;5043189;27;119893;-75
2022/07/25 03:43:30;;;;;;;6.22;2.45;;;16.80;99.90;;;17.87;100.00;99108.78;5044968;27;114707;-76
2022/07/25 03:45:59;;;;;;;5.35;2.50;;;16.80;99.90;;;17.90;100.00;99114.38;5042259;27;130134;-76
2022/07/25 03:48:28;;;;;;;6.07;2.60;;;16.80;99.90;;;17.36;100.00;99107.25;5042347;27;130350;-74
2022/07/25 03:50:57;;;;;;;5.13;2.97;;;16.60;99.90;;;17.25;100.00;99102.34;5042556;27;119189;-73
2022/07/25 03:53:25;;;;;;;4.75;2.78;;;16.50;99.90;;;17.14;100.00;99109.63;5044217;27;114928;-75
2022/07/25 03:55:56;;;;;;;4.70;2.70;;;16.50;99.90;;;17.13;100.00;99110.75;5042310;27;129827;-77
2022/07/25 03:58:24;;;;;;;8.70;3.22;;;16.50;99.90;;;17.01;100.00;99108.97;5044571;27;129655;-77
2022/07/25 04:00:53;;;;;;;4.53;2.55;;;16.50;99.90;;;17.25;100.00;99107.84;5042640;27;119155;-76
2022/07/25 04:03:22;;;;;;;4.65;2.95;;;16.50;99.90;;;17.18;100.00;99104.97;5042377;27;115889;-76
2022/07/25 04:05:51;;;;;;;5.35;2.78;;;16.60;99.90;;;17.33;100.00;99113.44;5042035;27;130470;-78
2022/07/25 04:08:19;;;;;;;4.18;2.63;;;16.70;99.90;;;17.54;100.00;99102.81;5042047;27;129952;-76
2022/07/25 04:10:48;;;;;;;5.28;2.53;;;16.70;99.90;;;17.69;100.00;99103.03;5042059;27;119353;-74
2022/07/25 04:13:18;;;;;;;5.00;3.03;;;16.90;99.90;;;18.08;100.00;99100.09;5042196;27;114857;-77
2022/07/25 04:15:47;;;;;;;6.32;2.45;;;17.20;99.90;;;17.79;100.00;99107.88;5041678;27;129875;-76
2022/07/25 04:18:16;;;;;;;5.68;2.70;;;16.90;99.90;;;18.00;100.00;99107.44;5042225;27;129448;-76
2022/07/25 04:20:45;;;;;;;4.82;2.72;;;17.10;99.90;;;17.73;100.00;99110.19;5027518;27;117508;-78
2022/07/25 04:23:13;;;;;;;5.25;2.80;;;16.80;99.90;;;17.98;100.00;99108.97;5041939;27;115499;-74
2022/07/25 04:25:42;;;;;;;5.00;2.33;;;17.10;99.90;;;17.63;100.00;99107.25;5041513;27;130036;-77
2022/07/25 04:28:11;;;;;;;3.85;2.40;;;16.80;99.90;;;17.69;100.00;99114.03;5041708;27;129036;-78
2022/07/25 04:30:44;;;;;;;6.45;2.60;;;16.80;99.90;;;17.28;100.00;99111.00;5043920;27;118560;-75
2022/07/25 04:33:12;;;;;;;5.38;2.28;;;16.60;99.90;;;17.48;100.00;99112.50;5042090;27;115014;-76
2022/07/25 04:35:41;;;;;;;6.05;2.40;;;16.70;99.90;;;17.37;100.00;99109.63;5041760;27;129942;-74
2022/07/25 04:38:09;;;;;;;4.57;2.60;;;16.60;99.90;;;17.55;100.00;99107.13;5041776;27;129915;-76
2022/07/25 04:40:38;;;;;;;6.93;2.70;;;16.80;99.90;;;17.76;98.53;99108.63;5043760;27;117584;-75
2022/07/25 04:43:07;;;;;;;3.83;2.20;;;16.90;99.90;;;17.63;100.00;99104.53;5044053;27;114864;-74
2022/07/25 04:45:36;;;;;;;4.15;2.10;;;16.90;99.90;;;18.11;97.04;99102.88;5043223;27;128832;-76
2022/07/25 04:48:06;;;;;;;4.53;2.10;;;17.20;99.90;;;18.59;91.39;99110.56;5041231;27;129575;-75
2022/07/25 04:50:35;;;;;;;4.88;2.20;;;17.30;99.90;;;18.37;93.10;99116.94;5041790;27;119052;-76
2022/07/25 04:53:04;;;;;;;4.03;2.40;;;17.20;99.90;;;18.50;92.53;99119.06;5042516;27;115347;-76
2022/07/25 04:55:33;;;;;;;4.72;2.38;;;17.40;99.90;;;18.04;95.02;99112.97;5043576;27;129555;-76
2022/07/25 04:58:02;;;;;;;4.28;2.40;;;17.00;99.90;;;17.78;97.71;99122.78;5043255;27;129105;-78
2022/07/25 05:00:31;;;;;;;4.05;2.20;;;16.90;99.90;;;17.43;98.67;99119.09;5041571;27;119015;-75
2022/07/25 05:03:00;;;;;;;4.70;2.20;;;16.70;99.90;;;17.38;98.81;99113.13;5041980;27;115809;-75
2022/07/25 05:05:30;;;;;;;5.80;2.47;;;16.80;99.90;;;17.71;96.88;99111.69;5041278;27;129874;-76
2022/07/25 05:08:00;;;;;;;3.53;2.30;;;16.90;99.90;;;17.95;96.27;99116.78;5041205;27;129392;-76
2022/07/25 05:10:30;;;;;;;5.70;2.10;;;17.10;99.90;;;18.44;94.10;99108.78;5041273;27;119279;-75
2022/07/25 05:12:58;;;;;;;5.25;2.33;;;17.40;99.90;;;18.06;95.29;99105.16;5041921;27;115392;-73
2022/07/25 05:15:27;;;;;;;6.13;2.40;;;17.10;99.90;;;18.27;95.21;99116.44;5040906;27;130010;-76
2022/07/25 05:17:55;;;;;;;7.03;2.85;;;17.20;99.90;;;18.94;91.00;99125.88;5041180;27;130000;-77
2022/07/25 05:20:24;;;;;;;7.28;2.28;;;17.60;99.90;;;19.53;86.95;99116.97;5043449;27;118501;-76
2022/07/25 05:22:55;;;;;;;3.53;2.13;;;17.90;99.90;;;19.73;85.86;99129.31;5041502;27;115112;-74
2022/07/25 05:25:24;;;;;;;4.72;2.33;;;17.90;99.90;;;19.31;86.71;99133.31;5040867;27;130143;-78
2022/07/25 05:27:54;;;;;;;4.38;2.22;;;17.80;99.90;;;19.33;85.94;99128.22;5041193;27;129698;-77
2022/07/25 05:30:23;;;;;;;7.50;2.40;;;17.80;99.90;;;18.39;91.85;99126.41;5042182;27;119036;-78
2022/07/25 05:32:51;;;;;;;7.18;2.60;;;17.30;99.90;;;18.50;91.98;99130.06;5041668;27;115051;-75
2022/07/25 05:35:20;;;;;;;3.88;2.08;;;17.00;99.90;;;18.73;89.84;99136.59;5044015;27;129265;-78
2022/07/25 05:37:48;;;;;;;5.78;2.13;;;17.10;99.90;;;18.68;88.16;99127.53;5044583;27;129986;-77
2022/07/25 05:40:18;;;;;;;2.72;1.80;;;17.20;99.90;;;19.18;86.29;99127.31;5043286;27;119363;-78
2022/07/25 05:42:47;;;;;;;6.95;2.10;;;17.40;99.90;;;19.24;83.97;99124.97;5044793;27;116412;-74
2022/07/25 05:45:15;;;;;;;5.93;2.00;;;17.60;99.90;;;19.06;84.31;99124.00;5044463;27;130333;-75
2022/07/25 05:47:43;;;;;;;2.58;1.80;;;17.30;99.90;;;18.85;83.71;99123.44;5044484;27;129993;-76
2022/07/25 05:50:12;;;;;;;3.97;1.83;;;17.30;99.90;;;19.15;85.00;99124.50;5044513;27;118861;-76
2022/07/25 05:52:41;;;;;;;3.15;1.85;;;17.70;99.90;;;18.94;82.82;99125.88;5045095;27;115121;-76
2022/07/25 05:55:10;;;;;;;5.03;1.90;;;17.60;99.90;;;18.73;83.06;99126.41;5044376;27;130030;-76
2022/07/25 05:57:41;;;;;;;4.82;1.85;;;17.40;99.90;;;18.85;84.66;99120.69;5046437;27;129102;-73
2022/07/25 06:00:11;;;;;;;5.03;1.65;;;17.50;99.90;;;19.21;83.26;99111.97;5044365;27;119331;-73
2022/07/25 06:02:40;;;;;;;5.35;1.45;;;17.50;99.90;;;19.75;80.79;99124.22;5044552;27;114645;-76
2022/07/25 06:05:10;;;;;;;3.05;1.60;;;17.60;99.90;;;19.70;80.99;99127.34;5043934;27;130102;-77
2022/07/25 06:07:38;;;;;;;5.70;1.77;;;17.90;99.90;;;19.56;83.68;99121.72;5043688;27;129487;-72
2022/07/25 06:10:08;;;;;;;3.25;1.95;;;17.90;99.90;;;19.88;79.13;99123.94;5029172;27;117700;-75
2022/07/25 06:12:36;;;;;;;4.20;1.90;;;17.70;99.90;;;19.91;78.86;99126.72;5044302;27;115831;-75
2022/07/25 06:15:08;;;;;;;6.28;1.63;;;18.00;99.90;;;19.93;79.76;99123.59;5043709;27;130054;-76
2022/07/25 06:17:36;;;;;;;3.85;1.85;;;17.90;99.90;;;19.93;79.32;99120.84;5043774;27;129766;-73
2022/07/25 06:20:06;;;;;;;4.22;1.92;;;18.10;99.90;;;19.99;77.47;99116.56;5043690;27;118838;-75
2022/07/25 06:22:35;;;;;;;3.20;1.77;;;17.60;99.90;;;19.73;77.08;99125.78;5044585;27;115648;-75
2022/07/25 06:25:04;;;;;;;4.40;2.13;;;17.50;99.90;;;19.40;78.21;99125.53;5043134;27;130009;-71
2022/07/25 06:27:34;;;;;;;2.92;1.70;;;17.30;99.90;;;19.40;78.26;99122.78;5043212;27;129450;-72
2022/07/25 06:30:04;;;;;;;3.90;1.63;;;17.60;99.90;;;19.63;75.78;99130.03;5043531;27;119126;-76
2022/07/25 06:32:34;;;;;;;3.17;1.38;;;17.90;99.90;;;18.87;76.58;99120.31;5043826;27;116099;-74
2022/07/25 06:35:03;;;;;;;5.05;1.38;;;17.50;99.90;;;18.82;79.27;99117.84;5043168;27;129785;-79
2022/07/25 06:37:31;;;;;;;3.45;1.30;;;17.70;99.90;;;18.61;79.35;99124.69;5045533;27;129489;-73
2022/07/25 06:40:01;;;;;;;2.47;1.48;;;17.60;99.90;;;18.91;77.56;99115.63;5043924;27;119159;-74
2022/07/25 06:42:30;;;;;;;2.58;1.50;;;17.80;99.90;;;19.42;76.85;99110.63;5029011;27;113844;-75
2022/07/25 06:44:59;;;;;;;4.88;1.90;;;18.30;99.90;;;20.12;74.22;99114.25;5043225;27;129621;-76
2022/07/25 06:47:27;;;;;;;1.90;1.30;;;18.40;99.90;;;20.25;73.37;99117.47;5044795;27;128703;-74
2022/07/25 06:49:57;;;;;;;2.55;1.70;;;18.50;99.90;;;20.40;73.03;99119.13;5043566;27;118878;-77
2022/07/25 06:52:26;;;;;;;4.00;1.70;;;18.50;99.90;;;20.20;74.12;99123.34;5043890;27;115193;-76
2022/07/25 06:54:55;;;;;;;5.28;1.95;;;18.40;99.90;;;20.22;74.04;99112.72;5043469;27;130242;-74
2022/07/25 06:57:24;;;;;;;3.30;1.58;;;18.30;99.90;;;20.64;69.75;99108.56;5043602;27;129502;-74
2022/07/25 06:59:53;;;;;;;3.40;1.40;;;18.50;99.90;;;20.55;69.13;99108.91;5028795;27;117499;-77
2022/07/25 07:02:22;;;;;;;3.78;1.42;;;18.50;99.90;;;20.49;69.05;99116.00;5043821;27;114950;-77
2022/07/25 07:04:50;;;;;;;4.15;1.30;;;18.40;99.90;;;20.46;70.02;99117.56;5043782;27;130790;-77
2022/07/25 07:07:20;;;;;;;2.70;1.52;;;18.50;99.90;;;19.98;71.26;99109.47;5043014;27;129566;-75
2022/07/25 07:09:48;;;;;;;3.42;1.58;;;18.40;99.90;;;19.77;74.05;99109.31;5043590;27;119657;-74
2022/07/25 07:12:17;;;;;;;5.80;1.60;;;18.50;99.90;;;20.33;73.64;99094.28;5043604;27;114962;-76
2022/07/25 07:14:46;;;;;;;4.53;1.60;;;19.00;99.90;;;20.70;71.22;99093.25;5043157;27;130050;-73
2022/07/25 07:17:15;;;;;;;4.47;1.90;;;18.60;99.90;;;20.50;71.60;99100.25;5042607;27;130751;-72
2022/07/25 07:19:44;;;;;;;4.45;2.10;;;18.40;99.90;;;20.47;71.83;99094.34;5042913;27;118854;-74
2022/07/25 07:22:13;;;;;;;3.42;1.83;;;18.30;99.90;;;20.32;72.80;99106.50;5043368;27;116380;-75
2022/07/25 07:24:43;;;;;;;2.30;1.30;;;18.50;99.90;;;20.64;71.40;99098.34;5042959;27;129773;-75
2022/07/25 07:27:12;;;;;;;4.30;1.33;;;18.70;99.90;;;20.58;69.19;99096.34;5043533;27;129378;-76
2022/07/25 07:29:40;;;;;;;1.73;1.05;;;18.90;99.90;;;20.42;68.29;99102.97;5043266;27;118821;-76
2022/07/25 07:32:09;;;;;;;2.83;1.40;;;18.90;99.90;;;20.50;68.53;99100.25;5043788;27;115333;-76
2022/07/25 07:34:38;;;;;;;1.80;1.10;;;19.10;99.90;;;20.17;69.00;99099.34;5042677;27;130393;-75
2022/07/25 07:37:06;;;;;;;7.15;2.20;;;19.10;99.90;;;20.77;67.60;99087.78;5042838;27;129450;-75
2022/07/25 07:39:35;;;;;;;3.20;1.50;;;19.50;99.90;;;21.30;66.19;99102.00;5043087;27;118785;-72
2022/07/25 07:42:06;;;;;;;2.25;1.30;;;19.90;99.90;;;21.11;66.99;99084.66;5041989;27;115135;-76
2022/07/25 07:44:35;;;;;;;3.78;1.10;;;19.60;99.90;;;21.09;67.54;99087.03;5041959;27;130173;-73
2022/07/25 07:47:03;;;;;;;2.70;1.10;;;19.20;99.90;;;21.16;66.00;99087.03;5042579;27;129418;-76
2022/07/25 07:49:32;;;;;;;2.95;1.20;;;19.20;99.90;;;21.69;62.92;99084.66;5043049;27;119299;-77
2022/07/25 07:52:00;;;;;;;5.15;1.30;;;19.40;99.90;;;22.14;61.11;99093.25;5042931;27;115012;-77
2022/07/25 07:57:17;;;;;;;2.22;1.27;;;20.00;95.50;;;21.77;60.37;99108.34;5044427;27;128454;-75
2022/07/25 07:59:46;;;;;;;3.78;1.30;;;19.90;93.70;;;21.04;62.13;99101.22;5042093;27;119032;-72
2022/07/25 08:02:15;;;;;;;2.90;1.33;;;19.60;92.20;;;21.30;64.48;99090.97;5042524;27;115060;-74
2022/07/25 08:04:43;;;;;;;1.67;1.05;;;20.10;94.70;;;20.79;63.43;99101.94;5041930;27;129851;-75
2022/07/25 08:07:11;;;;;;;3.08;1.00;;;19.60;93.80;;;21.10;63.20;99088.59;5042191;27;129458;-74
2022/07/25 08:09:40;;;;;;;2.15;1.00;;;19.80;92.30;;;20.45;65.43;99088.41;5044512;27;117818;-73
2022/07/25 08:12:09;;;;;;;2.15;0.90;;;19.40;93.70;;;21.01;62.66;99097.25;5042347;27;115762;-76
2022/07/25 08:14:39;;;;;;;1.77;0.90;;;19.40;93.70;;;21.35;57.04;99096.13;5042348;27;130485;-74
2022/07/25 08:17:07;;;;;;;1.15;0.90;;;19.80;40.10;;;21.40;51.80;99106.75;5045147;27;129059;-76
2022/07/25 08:19:36;;;;;;;2.22;1.20;;;19.70;16.20;;;21.68;52.87;99094.94;5042406;27;118745;-75
2022/07/25 08:22:04;;;;;;;2.05;0.90;;;19.90;24.40;;;20.70;49.42;99104.28;5042281;27;114859;-77
2022/07/25 08:24:32;;;;;;;1.23;0.70;;;19.50;1.00;;;20.33;53.22;99108.06;5043853;27;130021;-75
2022/07/25 08:27:01;;;;;;;2.40;1.15;;;19.50;6.00;;;20.81;54.55;99107.84;5042229;27;129476;-75
2022/07/25 08:29:29;;;;;;;0.77;0.70;;;20.00;11.50;;;21.05;55.85;99107.50;5042401;27;118640;-77
2022/07/25 08:32:00;;;;;;;2.10;0.82;;;20.20;16.00;;;20.95;53.30;99098.81;5045076;27;115146;-73
2022/07/25 08:34:28;;;;;;;2.30;0.95;;;19.90;7.70;;;21.24;54.63;99095.31;5041326;27;129912;-75
2022/07/25 08:36:57;;;;;;;2.38;0.85;;;20.00;16.80;;;21.50;55.15;99099.69;5040539;27;129357;-75
2022/07/25 08:39:25;;;;;;;1.35;0.90;;;20.50;14.30;;;21.85;52.82;99092.56;5042252;27;118733;-75
2022/07/25 08:41:54;;;;;;;8.82;1.52;;;20.50;6.10;;;22.06;49.69;99113.81;5041994;27;115622;-76
2022/07/25 08:44:29;;;;;;;1.20;0.70;;;20.50;1.00;;;21.56;47.33;99109.13;5041627;27;130102;-75
2022/07/25 08:47:00;;;;;;;1.80;0.80;;;20.40;1.00;;;21.09;49.35;99117.38;5041632;27;129683;-72
2022/07/25 08:49:29;;;;;;;1.58;0.80;;;20.10;1.00;;;20.74;49.29;99116.13;5042009;27;118759;-76
2022/07/25 08:51:58;;;;;;;1.83;0.90;;;20.00;1.00;;;20.55;51.64;99113.66;5042446;27;115582;-75
2022/07/25 08:54:27;;;;;;;2.28;1.10;;;19.90;1.00;;;21.36;53.72;99111.47;5044599;27;129660;-75
2022/07/25 08:56:55;;;;;;;1.35;0.80;;;20.50;1.00;;;21.52;51.62;99117.44;5041664;27;129904;-74
2022/07/25 08:59:24;;;;;;;4.53;1.02;;;20.50;1.00;;;21.89;52.87;99110.69;5041768;27;119455;-75
2022/07/25 09:01:52;;;;;;;7.07;1.40;;;20.60;1.00;;;21.76;54.23;99111.50;5042195;27;115752;-76
2022/07/25 09:04:23;;;;;;;1.42;0.90;;;20.50;6.80;;;21.92;53.40;99119.38;5041346;27;129995;-75
2022/07/25 09:06:52;;;;;;;3.88;1.20;;;20.20;8.70;;;21.62;52.25;99118.59;5041412;27;129196;-77
2022/07/25 09:09:31;;;;;;;2.70;0.98;;;20.20;1.00;;;21.24;54.54;99112.66;5044667;27;118883;-75
2022/07/25 09:12:00;;;;;;;2.53;1.00;;;20.30;2.70;;;21.24;54.09;99111.88;5049235;27;114922;-76
2022/07/25 09:14:28;;;;;;;1.20;1.00;;;20.40;1.00;;;20.66;57.69;99103.47;5049960;27;129362;-74
2022/07/25 09:16:57;;;;;;;4.15;1.10;;;19.90;13.20;;;20.53;57.91;99110.50;5045424;27;129723;-75
2022/07/25 09:19:27;;;;;;;1.30;0.95;;;19.80;14.00;;;20.70;57.63;99115.31;5048978;27;119428;-76
2022/07/25 09:22:02;;;;;;;2.90;1.23;;;19.80;17.90;;;20.62;59.37;99124.72;5051023;27;113807;-76
2022/07/25 09:24:32;;;;;;;3.45;1.40;;;20.00;22.30;;;21.26;58.08;99134.34;5044690;27;129970;-75
2022/07/25 09:27:08;;;;;;;4.40;1.35;;;20.20;20.00;;;21.27;57.29;99127.63;5044436;27;130057;-75
2022/07/25 09:29:41;;;;;;;1.35;1.10;;;20.30;15.70;;;20.76;57.05;99118.50;5046777;27;117618;-75
2022/07/25 09:32:19;;;;;;;1.65;1.10;;;19.90;14.30;;;21.24;56.57;99120.94;5045499;27;115463;-75
2022/07/25 09:34:50;;;;;;;1.75;1.00;;;20.30;11.70;;;22.19;56.71;99126.00;5044619;27;129693;-74
2022/07/25 09:37:26;;;;;;;4.22;1.90;;;21.00;17.20;;;21.76;57.22;99123.31;5045345;27;129758;-75
2022/07/25 09:39:55;;;;;;;2.30;1.20;;;20.50;20.90;;;21.03;58.84;99127.22;5045069;27;118903;-75
2022/07/25 09:42:25;;;;;;;4.25;1.85;;;20.00;24.90;;;21.32;59.22;99132.78;5047201;27;114673;-72
2022/07/25 09:45:08;;;;;;;1.75;1.08;;;20.20;22.60;;;21.92;56.68;99116.59;5044220;27;130406;-75
2022/07/25 09:47:49;;;;;;;1.60;1.02;;;20.70;18.00;;;22.51;55.41;99119.59;5044149;27;130113;-75
2022/07/25 09:50:21;;;;;;;7.05;1.10;;;21.00;13.90;;;22.58;52.59;99122.34;5044341;27;118743;-74
2022/07/25 09:52:52;;;;;;;1.20;0.90;;;20.90;1.00;;;23.07;51.88;99119.69;5045813;27;115152;-77
2022/07/25 09:55:21;;;;;;;1.88;1.20;;;21.00;2.00;;;23.36;50.35;99119.53;5044212;27;129752;-76
2022/07/25 09:57:52;;;;;;;2.65;1.10;;;21.30;1.00;;;22.36;50.64;99129.13;5043708;27;129794;-76
2022/07/25 10:00:23;;;;;;;1.83;1.08;;;20.60;1.00;;;22.22;52.28;99110.59;5046543;27;118468;-74
2022/07/25 10:03:16;;;;;;;1.10;0.77;;;20.50;1.00;;;23.12;52.11;99126.81;5045164;27;115036;-75
2022/07/25 10:06:03;;;;;;;5.35;1.38;;;21.40;1.00;;;23.31;52.13;99117.97;5043467;27;130663;-78
2022/07/25 10:08:37;;;;;;;2.25;1.25;;;21.30;5.70;;;23.01;51.37;99131.59;5043854;27;129759;-75
2022/07/25 10:11:17;;;;;;;2.97;1.23;;;20.70;3.20;;;23.46;49.47;99128.94;5044835;27;118540;-74
2022/07/25 10:13:47;;;;;;;2.47;1.35;;;21.10;1.00;;;23.98;48.45;99123.34;5057522;27;115198;-76
2022/07/25 10:16:18;;;;;;;1.48;0.90;;;21.70;1.00;;;24.55;46.39;99124.66;5063996;27;130336;-78
2022/07/25 10:18:52;;;;;;;1.67;1.17;;;21.80;1.00;;;24.07;47.64;99125.63;5063941;27;129098;-76
2022/07/25 10:21:25;;;;;;;3.53;1.45;;;21.70;1.00;;;23.49;49.79;99130.88;5063715;27;118935;-77